createdAt,value
2022-11-15T00:00:47.920Z,3.4
2022-11-15T00:03:06.268Z,4.8
2022-11-15T00:05:24.843Z,4.4
2022-11-15T00:07:58.162Z,-1.6
2022-11-15T00:10:16.381Z,4
2022-11-15T00:12:34.629Z,3.9
2022-11-15T00:14:52.705Z,4.2
2022-11-15T00:17:11.206Z,4.2
2022-11-15T00:19:29.199Z,4.9
2022-11-15T00:21:47.363Z,3.9
2022-11-15T00:24:05.739Z,3.6
2022-11-15T00:26:23.843Z,3.8
2022-11-15T00:28:42.005Z,4
2022-11-15T00:31:00.667Z,4.1
2022-11-15T00:33:19.419Z,-1.9
2022-11-15T00:35:37.345Z,4.2
2022-11-15T00:37:56.090Z,4.9
2022-11-15T00:40:14.482Z,-2.6
2022-11-15T00:42:33.061Z,4
2022-11-15T00:44:51.006Z,3.9
2022-11-15T00:47:09.120Z,4.3
2022-11-15T00:49:27.479Z,4.2
2022-11-15T00:51:45.490Z,4.1
2022-11-15T00:54:03.790Z,4
2022-11-15T00:56:21.976Z,4
2022-11-15T00:58:40.147Z,3.5
2022-11-15T01:00:58.918Z,3.4
2022-11-15T01:03:17.309Z,-2.6
2022-11-15T01:05:35.526Z,3.5
2022-11-15T01:07:53.680Z,4.4
2022-11-15T01:10:11.926Z,4.7
2022-11-15T01:12:30.186Z,4.4
2022-11-15T01:14:48.343Z,4.4
2022-11-15T01:17:06.622Z,4.3
2022-11-15T01:19:25.525Z,3.3
2022-11-15T01:21:44.351Z,-2.4
2022-11-15T01:24:02.684Z,-3.1
2022-11-15T01:26:20.844Z,3.4
2022-11-15T01:28:39.164Z,4.1
2022-11-15T01:30:57.342Z,4.7
2022-11-15T01:33:15.665Z,3.6
2022-11-15T01:35:34.335Z,3.7
2022-11-15T01:37:52.749Z,-2.9
2022-11-15T01:40:11.008Z,3.6
2022-11-15T01:42:29.779Z,4.6
2022-11-15T01:44:48.095Z,-2.8
2022-11-15T01:47:06.356Z,3.6
2022-11-15T01:49:24.639Z,4.1
2022-11-15T01:51:42.778Z,4.5
2022-11-15T01:54:01.399Z,4.3
2022-11-15T01:56:20.418Z,-2.9
2022-11-15T01:58:38.856Z,-2.8
2022-11-15T02:00:57.091Z,3.5
2022-11-15T02:03:15.253Z,4.2
2022-11-15T02:05:33.758Z,3.8
2022-11-15T02:07:51.670Z,3.4
2022-11-15T02:10:09.991Z,4.1
2022-11-15T02:12:28.130Z,4.3
2022-11-15T02:14:46.330Z,3.9
2022-11-15T02:17:04.717Z,3.6
2022-11-15T02:19:23.351Z,3.9
2022-11-15T02:21:42.278Z,-2.9
2022-11-15T02:24:00.740Z,-2.9
2022-11-15T02:26:19.010Z,3.1
2022-11-15T02:28:37.178Z,3.9
2022-11-15T02:30:55.475Z,3.6
2022-11-15T02:33:13.617Z,4
2022-11-15T02:35:31.881Z,3.9
2022-11-15T02:37:50.151Z,4.3
2022-11-15T02:40:08.355Z,3.3
2022-11-15T02:42:26.620Z,2.8
2022-11-15T02:44:44.746Z,3.6
2022-11-15T02:47:03.497Z,4.4
2022-11-15T02:49:21.877Z,-2.9
2022-11-15T02:51:41.015Z,3.4
2022-11-15T02:53:59.316Z,-3.2
2022-11-15T02:56:17.481Z,3.7
2022-11-15T02:58:36.002Z,4.3
2022-11-15T03:00:54.333Z,4.3
2022-11-15T03:03:13.293Z,4.3
2022-11-15T03:05:31.695Z,-2.4
2022-11-15T03:07:50.448Z,3.6
2022-11-15T03:10:09.134Z,-2.1
2022-11-15T03:12:27.399Z,4.3
2022-11-15T03:14:45.931Z,4.3
2022-11-15T03:17:04.122Z,4.3
2022-11-15T03:19:22.633Z,4.9
2022-11-15T03:21:40.884Z,4.3
2022-11-15T03:23:59.901Z,3.7
2022-11-15T03:26:18.252Z,-1.9
2022-11-15T03:28:37.372Z,3.9
2022-11-15T03:30:55.717Z,-1.8
2022-11-15T03:33:14.033Z,4.4
2022-11-15T03:35:32.569Z,4.1
2022-11-15T03:37:51.032Z,4.7
2022-11-15T03:40:09.712Z,4.3
2022-11-15T03:42:28.208Z,-2.1
2022-11-15T03:44:47.136Z,4.2
2022-11-15T03:47:05.541Z,-2.7
2022-11-15T03:49:24.005Z,4.5
2022-11-15T03:51:42.137Z,4.1
2022-11-15T03:54:00.482Z,4.7
2022-11-15T03:56:18.894Z,4.9
2022-11-15T03:58:37.375Z,5
2022-11-15T04:00:56.165Z,4.8
2022-11-15T04:03:14.491Z,-1.9
2022-11-15T04:05:32.909Z,4.3
2022-11-15T04:07:51.645Z,4.3
2022-11-15T04:10:10.425Z,-1.2
2022-11-15T04:12:28.728Z,4.2
2022-11-15T04:14:47.706Z,4.1
2022-11-15T04:17:06.674Z,-2.3
2022-11-15T04:19:25.311Z,-2.1
2022-11-15T04:21:43.418Z,4.5
2022-11-15T04:24:02.297Z,4.4
2022-11-15T04:26:20.904Z,-1.4
2022-11-15T04:28:39.118Z,4.7
2022-11-15T04:30:57.638Z,4.2
2022-11-15T04:33:15.800Z,5.1
2022-11-15T04:35:34.309Z,4.3
2022-11-15T04:37:52.597Z,4.4
2022-11-15T04:40:10.727Z,4.8
2022-11-15T04:42:29.731Z,4.4
2022-11-15T04:44:48.096Z,-2
2022-11-15T04:47:07.069Z,3.9
2022-11-15T04:49:25.521Z,-2.1
2022-11-15T04:51:44.037Z,4.2
2022-11-15T04:54:02.145Z,4.3
2022-11-15T04:56:21.201Z,4.6
2022-11-15T04:58:39.603Z,-1.6
2022-11-15T05:00:58.190Z,3.7
2022-11-15T05:03:16.251Z,3.3
2022-11-15T05:05:34.675Z,4.6
2022-11-15T05:07:52.975Z,4.4
2022-11-15T05:10:11.775Z,4.3
2022-11-15T05:12:30.430Z,-1.9
2022-11-15T05:14:48.843Z,3.6
2022-11-15T05:17:07.263Z,3.7
2022-11-15T05:19:25.343Z,4.1
2022-11-15T05:21:43.929Z,4.5
2022-11-15T05:24:02.084Z,4.3
2022-11-15T05:26:20.369Z,4.6
2022-11-15T05:28:38.718Z,4.6
2022-11-15T05:30:57.017Z,4
2022-11-15T05:33:15.487Z,4.4
2022-11-15T05:35:34.249Z,3.9
2022-11-15T05:37:53.472Z,-1.9
2022-11-15T05:40:11.959Z,-2.7
2022-11-15T05:42:31.083Z,4
2022-11-15T05:44:49.863Z,-2
2022-11-15T05:47:08.587Z,-2.7
2022-11-15T05:49:26.769Z,3.8
2022-11-15T05:51:45.318Z,3.4
2022-11-15T05:54:03.628Z,4.1
2022-11-15T05:56:22.336Z,4.3
2022-11-15T05:58:41.477Z,-3.1
2022-11-15T06:01:00.407Z,-2.7
2022-11-15T06:03:19.240Z,-2.9
2022-11-15T06:05:37.394Z,3.9
2022-11-15T06:07:55.832Z,4.4
2022-11-15T06:10:14.094Z,4.2
2022-11-15T06:12:32.358Z,4.9
2022-11-15T06:14:50.729Z,4.6
2022-11-15T06:17:11.407Z,4.9
2022-11-15T06:19:27.648Z,5
2022-11-15T06:21:45.745Z,4.6
2022-11-15T06:24:04.185Z,5.3
2022-11-15T06:26:23.005Z,5.3
2022-11-15T06:28:41.660Z,-2.8
2022-11-15T06:31:00.402Z,4.4
2022-11-15T06:33:19.137Z,-2.1
2022-11-15T06:35:37.453Z,4.5
2022-11-15T06:37:55.903Z,4.9
2022-11-15T06:40:13.997Z,5.1
2022-11-15T06:42:32.210Z,4.6
2022-11-15T06:44:50.666Z,5
2022-11-15T06:47:09.491Z,4.9
2022-11-15T06:49:28.159Z,-2.3
2022-11-15T06:51:46.558Z,4.3
2022-11-15T06:54:04.850Z,4.4
2022-11-15T06:56:22.987Z,4.6
2022-11-15T06:58:41.304Z,5.1
2022-11-15T07:00:59.915Z,5.1
2022-11-15T07:03:18.058Z,4.7
2022-11-15T07:05:36.449Z,4.6
2022-11-15T07:07:54.646Z,4.9
2022-11-15T07:10:13.162Z,5.1
2022-11-15T07:12:31.416Z,5.1
2022-11-15T07:14:49.823Z,5.6
2022-11-15T07:17:08.147Z,5.1
2022-11-15T07:19:26.637Z,5.4
2022-11-15T07:21:44.730Z,4.6
2022-11-15T07:24:03.428Z,5.2
2022-11-15T07:26:21.573Z,5.7
2022-11-15T07:28:40.209Z,5.3
2022-11-15T07:30:58.980Z,-1.1
2022-11-15T07:33:17.160Z,4.7
2022-11-15T07:35:35.743Z,5.1
2022-11-15T07:37:53.857Z,5.2
2022-11-15T07:40:12.782Z,5.3
2022-11-15T07:42:31.393Z,-1.4
2022-11-15T07:44:50.011Z,5.1
2022-11-15T07:47:09.196Z,-1.6
2022-11-15T07:49:27.631Z,-1.4
2022-11-15T07:51:46.750Z,5.4
2022-11-15T07:54:05.248Z,-1.8
2022-11-15T07:56:24.257Z,5.8
2022-11-15T07:58:42.670Z,-1.4
2022-11-15T08:01:01.273Z,6.2
2022-11-15T08:03:19.903Z,5.4
2022-11-15T08:05:38.580Z,-1.1
2022-11-15T08:07:57.541Z,5.7
2022-11-15T08:10:16.589Z,-1.3
2022-11-15T08:12:35.070Z,-1.4
2022-11-15T08:14:53.348Z,5.5
2022-11-15T08:17:11.749Z,6.1
2022-11-15T08:19:30.001Z,6
2022-11-15T08:21:48.537Z,5.8
2022-11-15T08:24:06.697Z,6
2022-11-15T08:26:25.282Z,6
2022-11-15T08:28:43.421Z,6.1
2022-11-15T08:31:01.778Z,6.1
2022-11-15T08:33:20.113Z,6.1
2022-11-15T08:35:38.382Z,6.5
2022-11-15T08:37:56.717Z,6.4
2022-11-15T08:40:14.905Z,6.8
2022-11-15T08:42:33.454Z,6.6
2022-11-15T08:44:52.133Z,6.8
2022-11-15T08:47:11.418Z,-1
2022-11-15T08:49:29.830Z,0.1
2022-11-15T08:51:48.426Z,6.2
2022-11-15T08:54:06.649Z,6.7
2022-11-15T08:56:25.124Z,6.5
2022-11-15T08:58:43.304Z,6.9
2022-11-15T09:01:01.654Z,6.9
2022-11-15T09:03:20.099Z,6.6
2022-11-15T09:05:38.406Z,5.9
2022-11-15T09:07:56.725Z,6.5
2022-11-15T09:10:35.728Z,6.6
2022-11-15T09:12:53.880Z,6.5
2022-11-15T09:15:12.166Z,6.5
2022-11-15T09:17:30.350Z,6.8
2022-11-15T09:19:48.680Z,6.8
2022-11-15T09:22:07.168Z,6.4
2022-11-15T09:24:25.601Z,7.4
2022-11-15T09:26:44.095Z,-0.1
2022-11-15T09:29:02.347Z,6.4
2022-11-15T09:31:22.169Z,7.3
2022-11-15T09:33:38.831Z,7.6
2022-11-15T09:35:57.488Z,7.8
2022-11-15T09:38:15.292Z,6.9
2022-11-15T09:40:33.484Z,7.4
2022-11-15T09:42:51.670Z,6.9
2022-11-15T09:45:10.007Z,6.5
2022-11-15T09:47:28.259Z,6.9
2022-11-15T09:49:46.424Z,7.3
2022-11-15T09:52:04.813Z,7.4
2022-11-15T09:55:10.398Z,7.5
2022-11-15T09:57:29.341Z,0.2
2022-11-15T09:59:48.276Z,0.9
2022-11-15T10:02:22.962Z,1.7
2022-11-15T10:04:41.195Z,7.4
2022-11-15T10:06:59.969Z,8.4
2022-11-15T10:09:22.800Z,1.2
2022-11-15T10:12:02.199Z,1.4
2022-11-15T10:14:20.754Z,0.8
2022-11-15T10:16:39.592Z,8.3
2022-11-15T10:18:57.916Z,2.1
2022-11-15T10:21:16.262Z,9.4
2022-11-15T10:23:34.784Z,8.2
2022-11-15T10:25:52.739Z,9.2
2022-11-15T10:28:11.246Z,10
2022-11-15T10:30:29.397Z,11.3
2022-11-15T10:32:47.743Z,11.4
2022-11-15T10:35:05.949Z,11.8
2022-11-15T10:37:24.266Z,11.4
2022-11-15T10:39:42.499Z,13.5
2022-11-15T10:42:02.816Z,16.6
2022-11-15T10:44:19.271Z,19.6
2022-11-15T10:46:57.465Z,22.1
2022-11-15T10:49:16.084Z,24.9
2022-11-15T10:51:34.011Z,26.1
2022-11-15T10:53:52.453Z,26.6
2022-11-15T10:56:11.013Z,27.5
2022-11-15T10:58:30.102Z,25.9
2022-11-15T11:00:48.562Z,17.8
2022-11-15T11:03:06.874Z,24.1
2022-11-15T11:05:25.522Z,21.1
2022-11-15T11:07:43.871Z,17.9
2022-11-15T11:10:02.226Z,16.3
2022-11-15T11:12:39.893Z,14.6
2022-11-15T11:14:58.872Z,14.1
2022-11-15T11:17:17.249Z,5.4
2022-11-15T11:19:36.048Z,13.7
2022-11-15T11:21:54.446Z,5.5
2022-11-15T11:24:12.807Z,12.5
2022-11-15T11:26:30.719Z,13.6
2022-11-15T11:28:47.129Z,2.8
2022-11-15T11:31:03.534Z,1.9
2022-11-15T11:33:20.054Z,2.5
2022-11-15T11:35:36.420Z,1.3
2022-11-15T11:37:52.775Z,1.3
2022-11-15T11:40:10.560Z,0.9
2022-11-15T11:42:25.657Z,1.3
2022-11-15T11:44:42.054Z,1.2
2022-11-15T11:46:58.691Z,1.4
2022-11-15T11:49:15.131Z,1.1
2022-11-15T11:51:31.710Z,1
2022-11-15T11:53:47.976Z,1.3
2022-11-15T11:56:04.377Z,0.8
2022-11-15T11:58:20.854Z,0.1
2022-11-15T12:00:37.323Z,0.3
2022-11-15T12:02:53.580Z,0.7
2022-11-15T12:05:09.850Z,0.8
2022-11-15T12:07:26.267Z,0.3
2022-11-15T12:09:42.569Z,0.2
2022-11-15T12:11:59.056Z,-0.3
2022-11-15T12:14:15.471Z,0.1
2022-11-15T12:16:32.004Z,-0.1
2022-11-15T12:18:48.611Z,-0.1
2022-11-15T12:21:04.890Z,0.7
2022-11-15T12:23:21.721Z,1
2022-11-15T12:25:38.444Z,1.2
2022-11-15T12:27:56.168Z,0.1
2022-11-15T12:30:23.128Z,-0.3
2022-11-15T12:32:39.563Z,-1
2022-11-15T12:34:56.007Z,-0.5
2022-11-15T12:37:12.464Z,0
2022-11-15T12:39:29.259Z,0.1
2022-11-15T12:41:45.509Z,0.4
2022-11-15T12:44:02.004Z,0.1
2022-11-15T12:46:18.425Z,0.3
2022-11-15T12:48:35.196Z,0.4
2022-11-15T12:50:52.966Z,-0.1
2022-11-15T12:53:11.800Z,3.1
2022-11-15T12:55:30.899Z,3.2
2022-11-15T12:57:47.421Z,2.6
2022-11-15T13:00:03.324Z,9.2
2022-11-15T13:02:20.945Z,9.9
2022-11-15T13:04:37.596Z,3.3
2022-11-15T13:06:55.556Z,9.3
2022-11-15T13:09:14.365Z,3.4
2022-11-15T13:11:33.684Z,3
2022-11-15T13:13:49.971Z,2.6
2022-11-15T13:16:07.898Z,9.6
2022-11-15T13:18:24.448Z,2.8
2022-11-15T13:20:42.298Z,9.8
2022-11-15T13:23:01.343Z,2.2
2022-11-15T13:25:20.374Z,2.6
2022-11-15T13:27:36.858Z,2.7
2022-11-15T13:29:54.698Z,8.9
2022-11-15T13:32:11.252Z,2.2
2022-11-15T13:34:52.787Z,8.8
2022-11-15T13:37:11.535Z,3.8
2022-11-15T13:39:27.904Z,1.5
2022-11-15T13:41:43.752Z,8.3
2022-11-15T13:44:01.569Z,-2.4
2022-11-15T13:46:18.134Z,2.8
2022-11-15T13:48:34.314Z,8.7
2022-11-15T13:50:52.359Z,-3.1
2022-11-15T13:53:11.319Z,2.4
2022-11-15T13:55:30.349Z,2.3
2022-11-15T13:57:49.322Z,1.4
2022-11-15T14:00:05.832Z,1.6
2022-11-15T14:02:21.099Z,8.2
2022-11-15T14:04:36.879Z,8.8
2022-11-15T14:06:53.321Z,-3.4
2022-11-15T14:09:09.871Z,-3.3
2022-11-15T14:11:25.976Z,-2.5
2022-11-15T14:13:42.377Z,-1.8
2022-11-15T14:15:58.955Z,-2.1
2022-11-15T14:18:15.417Z,-2.1
2022-11-15T14:20:31.898Z,-2.1
2022-11-15T14:22:48.520Z,-2.1
2022-11-15T14:25:04.773Z,-0.2
2022-11-15T14:27:21.411Z,-0.5
2022-11-15T14:29:37.888Z,-0.8
2022-11-15T14:31:54.560Z,-0.8
2022-11-15T14:34:11.191Z,-1
2022-11-15T14:36:27.616Z,-2.4
2022-11-15T14:38:45.498Z,-1.6
2022-11-15T14:41:03.491Z,8.4
2022-11-15T14:43:22.156Z,8.9
2022-11-15T14:45:38.921Z,1.3
2022-11-15T14:47:54.732Z,7.9
2022-11-15T14:50:11.290Z,-3.9
2022-11-15T14:52:32.122Z,-3.5
2022-11-15T14:54:44.073Z,-4
2022-11-15T14:57:00.330Z,-3.4
2022-11-15T14:59:16.900Z,-3.4
2022-11-15T15:01:33.269Z,-3.4
2022-11-15T15:03:49.907Z,-3.6
2022-11-15T15:06:06.127Z,-3.1
2022-11-15T15:08:22.657Z,-4.2
2022-11-15T15:10:57.811Z,-3
2022-11-15T15:13:14.359Z,-3.1
2022-11-15T15:15:30.656Z,-3.9
2022-11-15T15:17:48.324Z,-3.8
2022-11-15T15:20:06.766Z,6.9
2022-11-15T15:22:25.241Z,7.1
2022-11-15T15:24:43.367Z,6.9
2022-11-15T15:27:01.475Z,6.5
2022-11-15T15:29:20.193Z,6.6
2022-11-15T15:31:39.250Z,0.1
2022-11-15T15:33:57.967Z,0.1
2022-11-15T15:36:16.054Z,7.8
2022-11-15T15:38:34.935Z,7.7
2022-11-15T15:40:52.775Z,7.6
2022-11-15T15:43:11.077Z,7.1
2022-11-15T15:45:29.401Z,6.9
2022-11-15T15:47:47.755Z,7.1
2022-11-15T15:50:06.556Z,6.9
2022-11-15T15:52:25.058Z,0.3
2022-11-15T15:54:43.376Z,6.9
2022-11-15T15:57:01.702Z,7.4
2022-11-15T15:59:20.040Z,7.3
2022-11-15T16:01:38.395Z,7
2022-11-15T16:03:56.670Z,7.1
2022-11-15T16:06:14.989Z,7.3
2022-11-15T16:08:42.815Z,7.1
2022-11-15T16:11:05.165Z,6.9
2022-11-15T16:13:23.433Z,6.7
2022-11-15T16:15:41.889Z,7.2
2022-11-15T16:18:00.097Z,7.1
2022-11-15T16:20:18.495Z,6.9
2022-11-15T16:22:36.648Z,6.9
2022-11-15T16:24:55.247Z,7
2022-11-15T16:27:13.387Z,7.3
2022-11-15T16:29:31.721Z,6.9
2022-11-15T16:31:50.118Z,6.7
2022-11-15T16:34:08.446Z,6.8
2022-11-15T16:36:30.206Z,6.9
2022-11-15T16:38:45.126Z,6.9
2022-11-15T16:41:03.352Z,6.8
2022-11-15T16:43:21.633Z,6.6
2022-11-15T16:45:40.450Z,6.5
2022-11-15T16:47:58.496Z,7.3
2022-11-15T16:50:17.056Z,6.7
2022-11-15T16:52:35.505Z,6.1
2022-11-15T16:54:54.236Z,6.8
2022-11-15T16:57:12.435Z,6.6
2022-11-15T16:59:34.373Z,6.9
2022-11-15T17:01:49.057Z,6.6
2022-11-15T17:04:07.512Z,6.3
2022-11-15T17:06:25.855Z,6.6
2022-11-15T17:08:44.257Z,6.4
2022-11-15T17:11:02.492Z,6.4
2022-11-15T17:13:20.894Z,6.5
2022-11-15T17:15:39.145Z,6.4
2022-11-15T17:17:57.504Z,6.3
2022-11-15T17:20:15.804Z,6.7
2022-11-15T17:22:34.032Z,6.9
2022-11-15T17:24:52.983Z,6.5
2022-11-15T17:27:18.434Z,-0.4
2022-11-15T17:29:36.765Z,6.9
2022-11-15T17:31:55.064Z,6.9
2022-11-15T17:34:13.431Z,6.4
2022-11-15T17:36:31.822Z,6.5
2022-11-15T17:38:50.109Z,6.7
2022-11-15T17:41:08.455Z,6.2
2022-11-15T17:43:26.741Z,6.3
2022-11-15T17:45:45.137Z,6.4
2022-11-15T17:48:03.323Z,6.2
2022-11-15T17:50:21.774Z,5.6
2022-11-15T17:52:39.917Z,6.2
2022-11-15T17:54:58.135Z,6.3
2022-11-15T17:57:16.635Z,5.8
2022-11-15T17:59:34.637Z,6.3
2022-11-15T18:01:52.553Z,6.3
2022-11-15T18:04:10.626Z,5.8
2022-11-15T18:06:29.112Z,5.8
2022-11-15T18:08:47.152Z,5.5
2022-11-15T18:11:05.211Z,5.9
2022-11-15T18:13:23.497Z,5.7
2022-11-15T18:15:41.578Z,5.9
2022-11-15T18:18:01.042Z,5.4
2022-11-15T18:20:18.051Z,5.4
2022-11-15T18:22:36.134Z,5.7
2022-11-15T18:24:54.405Z,5.4
2022-11-15T18:27:12.510Z,5.5
2022-11-15T18:29:30.738Z,5.9
2022-11-15T18:31:48.809Z,6
2022-11-15T18:34:07.091Z,5.4
2022-11-15T18:36:25.879Z,5.6
2022-11-15T18:38:44.227Z,-1.1
2022-11-15T18:41:02.306Z,5.2
2022-11-15T18:43:20.747Z,5.8
2022-11-15T18:45:38.728Z,5.6
2022-11-15T18:47:56.807Z,4.9
2022-11-15T18:50:15.048Z,5.4
2022-11-15T18:52:33.283Z,5.4
2022-11-15T18:54:51.430Z,5.2
2022-11-15T18:57:09.610Z,5.5
2022-11-15T18:59:28.492Z,5.4
2022-11-15T19:01:47.457Z,-1.7
2022-11-15T19:04:06.014Z,-0.6
2022-11-15T19:06:24.605Z,4.8
2022-11-15T19:08:43.023Z,-1.8
2022-11-15T19:11:01.243Z,5.1
2022-11-15T19:13:19.389Z,5.4
2022-11-15T19:15:37.638Z,5.4
2022-11-15T19:17:55.869Z,4.6
2022-11-15T19:20:13.951Z,5.6
2022-11-15T19:22:32.290Z,4.7
2022-11-15T19:24:50.297Z,5.1
2022-11-15T19:27:08.796Z,5.3
2022-11-15T19:29:26.952Z,5
2022-11-15T19:31:45.037Z,5.6
2022-11-15T19:34:03.105Z,5
2022-11-15T19:36:21.307Z,5.4
2022-11-15T19:38:39.511Z,4.9
2022-11-15T19:40:57.800Z,5.1
2022-11-15T19:43:15.892Z,4.6
2022-11-15T19:45:34.069Z,4.9
2022-11-15T19:47:52.276Z,5.2
2022-11-15T19:50:10.679Z,5.3
2022-11-15T19:52:28.625Z,4.8
2022-11-15T19:54:46.827Z,4.8
2022-11-15T19:57:05.033Z,4.8
2022-11-15T19:59:23.630Z,4.8
2022-11-15T20:01:42.198Z,-1.5
2022-11-15T20:04:00.428Z,5
2022-11-15T20:06:18.609Z,4.7
2022-11-15T20:08:36.940Z,5.6
2022-11-15T20:10:54.902Z,4.9
2022-11-15T20:13:13.106Z,5.2
2022-11-15T20:15:31.650Z,5.1
2022-11-15T20:17:49.381Z,5.5
2022-11-15T20:20:07.879Z,4.3
2022-11-15T20:22:25.860Z,5.1
2022-11-15T20:24:44.028Z,4.6
2022-11-15T20:27:02.333Z,4.5
2022-11-15T20:29:20.375Z,5.4
2022-11-15T20:31:38.581Z,4.9
2022-11-15T20:33:57.355Z,4.6
2022-11-15T20:36:15.872Z,-1.9
2022-11-15T20:38:34.278Z,5
2022-11-15T20:40:56.093Z,4.7
2022-11-15T20:43:10.427Z,4.6
2022-11-15T20:45:28.510Z,4.6
2022-11-15T20:47:47.242Z,5.3
2022-11-15T20:50:21.058Z,-1.8
2022-11-15T20:52:41.041Z,4.6
2022-11-15T20:54:59.316Z,5.3
2022-11-15T20:57:17.507Z,4.4
2022-11-15T20:59:36.188Z,4.8
2022-11-15T21:01:55.206Z,-1.1
2022-11-15T21:04:13.605Z,-1.2
2022-11-15T21:06:31.879Z,5.4
2022-11-15T21:08:50.025Z,4.6
2022-11-15T21:11:08.304Z,5.1
2022-11-15T21:13:26.477Z,4.9
2022-11-15T21:15:44.595Z,5.8
2022-11-15T21:18:03.369Z,5
2022-11-15T21:20:21.881Z,-1.7
2022-11-15T21:22:39.958Z,4.8
2022-11-15T21:24:58.108Z,5.2
2022-11-15T21:27:16.571Z,5
2022-11-15T21:29:35.039Z,5.4
2022-11-15T21:31:53.472Z,-0.4
2022-11-15T21:34:11.659Z,4.9
2022-11-15T21:36:29.948Z,4.8
2022-11-15T21:38:48.071Z,4.8
2022-11-15T21:41:06.347Z,5.4
2022-11-15T21:43:24.547Z,4.8
2022-11-15T21:45:42.732Z,4.3
2022-11-15T21:48:01.536Z,4.5
2022-11-15T21:50:20.536Z,-1.8
2022-11-15T21:52:38.858Z,-1.9
2022-11-15T21:54:57.192Z,4.8
2022-11-15T21:57:15.330Z,4.9
2022-11-15T21:59:33.601Z,5.3
2022-11-15T22:01:51.776Z,4.9
2022-11-15T22:04:10.015Z,4.7
2022-11-15T22:06:28.092Z,5.1
2022-11-15T22:08:46.383Z,4.9
2022-11-15T22:11:05.017Z,5.3
2022-11-15T22:13:24.298Z,-1.5
2022-11-15T22:15:43.144Z,-1.8
2022-11-15T22:18:01.612Z,-2.3
2022-11-15T22:20:46.463Z,4.4
2022-11-15T22:22:57.858Z,4.5
2022-11-15T22:25:16.141Z,4.6
2022-11-15T22:27:34.356Z,4.4
2022-11-15T22:29:52.516Z,4.8
2022-11-15T22:32:10.741Z,4.1
2022-11-15T22:34:28.919Z,4.1
2022-11-15T22:37:18.603Z,4.9
2022-11-15T22:39:25.131Z,4.5
2022-11-15T22:41:43.094Z,5.3
2022-11-15T22:44:01.199Z,4.9
2022-11-15T22:46:19.501Z,4.3
2022-11-15T22:48:38.404Z,4.5
2022-11-15T22:50:55.890Z,4.7
2022-11-15T22:53:14.116Z,4.8
2022-11-15T22:55:32.253Z,4.5
2022-11-15T22:57:50.540Z,4.4
2022-11-15T23:00:08.698Z,4.8
2022-11-15T23:02:27.008Z,4.6
2022-11-15T23:04:45.192Z,5
2022-11-15T23:07:03.451Z,4.7
2022-11-15T23:09:21.550Z,5
2022-11-15T23:11:39.816Z,4.5
2022-11-15T23:13:58.057Z,4.5
2022-11-15T23:16:16.118Z,4.3
2022-11-15T23:18:34.508Z,4.7
2022-11-15T23:21:03.059Z,4.6
2022-11-15T23:23:21.337Z,-1.9
2022-11-15T23:25:40.454Z,4.2
2022-11-15T23:27:58.612Z,-2.3
2022-11-15T23:30:17.473Z,4.4
2022-11-15T23:32:36.315Z,-1.9
2022-11-15T23:34:54.810Z,-2.2
2022-11-15T23:37:13.041Z,4.1
2022-11-15T23:39:31.261Z,4.7
2022-11-15T23:41:49.387Z,4.9
2022-11-15T23:44:07.741Z,4.2
2022-11-15T23:46:25.901Z,4.6
2022-11-15T23:48:44.685Z,4.6
2022-11-15T23:51:03.626Z,-1.7
2022-11-15T23:53:22.689Z,-1.7
2022-11-15T23:55:41.097Z,-1.9
2022-11-15T23:57:59.364Z,4.7
